createdAt,value
2018-05-04T00:01:58.225Z,9.60
2018-05-04T00:04:26.776Z,9.25
2018-05-04T00:06:55.149Z,9.35
2018-05-04T00:09:23.525Z,10.50
2018-05-04T00:11:51.929Z,11.07
2018-05-04T00:14:20.309Z,9.60
2018-05-04T00:16:48.704Z,9.50
2018-05-04T00:19:17.090Z,8.85
2018-05-04T00:21:46.272Z,9.80
2018-05-04T00:24:14.651Z,9.07
2018-05-04T00:26:43.518Z,9.45
2018-05-04T00:29:20.873Z,10.00
2018-05-04T00:31:56.157Z,9.80
2018-05-04T00:34:32.597Z,8.23
2018-05-04T00:37:08.994Z,9.40
2018-05-04T00:39:37.869Z,9.95
2018-05-04T00:42:06.762Z,9.73
2018-05-04T00:44:35.342Z,9.00
2018-05-04T00:47:03.794Z,8.95
2018-05-04T00:49:39.122Z,8.27
2018-05-04T00:52:09.285Z,9.38
2018-05-04T00:54:38.725Z,9.02
2018-05-04T00:57:11.890Z,8.85
2018-05-04T00:59:48.442Z,9.80
2018-05-04T01:02:24.984Z,10.15
2018-05-04T01:05:00.533Z,8.40
2018-05-04T01:07:33.932Z,8.20
2018-05-04T01:10:02.945Z,9.20
2018-05-04T01:12:33.712Z,10.35
2018-05-04T01:15:10.934Z,8.55
2018-05-04T01:17:46.212Z,9.55
2018-05-04T01:20:20.296Z,8.40
2018-05-04T01:22:53.160Z,9.65
2018-05-04T01:25:27.141Z,9.75
2018-05-04T01:27:56.620Z,9.32
2018-05-04T01:30:25.017Z,10.05
2018-05-04T01:32:53.418Z,10.70
2018-05-04T01:35:21.785Z,8.75
2018-05-04T01:37:50.176Z,8.60
2018-05-04T01:40:18.560Z,8.65
2018-05-04T01:42:47.720Z,8.70
2018-05-04T01:45:16.089Z,8.50
2018-05-04T01:47:44.764Z,9.25
2018-05-04T01:50:13.136Z,8.68
2018-05-04T01:52:41.500Z,8.65
2018-05-04T01:55:09.897Z,9.07
2018-05-04T01:57:38.271Z,9.05
2018-05-04T02:00:06.682Z,8.90
2018-05-04T02:02:35.120Z,9.30
2018-05-04T02:05:03.777Z,8.55
2018-05-04T02:07:32.923Z,9.93
2018-05-04T02:10:01.329Z,9.68
2018-05-04T02:12:29.730Z,8.90
2018-05-04T02:14:58.881Z,9.15
2018-05-04T02:17:27.272Z,8.35
2018-05-04T02:19:55.648Z,9.20
2018-05-04T02:22:24.312Z,9.75
2018-05-04T02:24:52.685Z,8.70
2018-05-04T02:27:21.053Z,8.27
2018-05-04T02:29:49.449Z,9.25
2018-05-04T02:32:17.824Z,8.00
2018-05-04T02:34:46.317Z,8.20
2018-05-04T02:37:14.697Z,9.98
2018-05-04T02:39:43.372Z,9.52
2018-05-04T02:42:11.744Z,9.25
2018-05-04T02:44:40.116Z,9.75
2018-05-04T02:47:08.516Z,9.40
2018-05-04T02:49:36.926Z,9.07
2018-05-04T02:52:05.323Z,9.98
2018-05-04T02:54:34.465Z,9.70
2018-05-04T02:57:03.360Z,8.57
2018-05-04T02:59:31.736Z,9.18
2018-05-04T03:02:00.115Z,9.27
2018-05-04T03:04:28.517Z,9.27
2018-05-04T03:06:56.904Z,10.07
2018-05-04T03:09:26.067Z,9.50
2018-05-04T03:11:54.446Z,9.13
2018-05-04T03:14:22.861Z,10.35
2018-05-04T03:16:51.239Z,9.15
2018-05-04T03:19:19.620Z,11.50
2018-05-04T03:21:48.015Z,9.20
2018-05-04T03:24:17.158Z,8.88
2018-05-04T03:26:45.573Z,9.15
2018-05-04T03:29:14.824Z,9.45
2018-05-04T03:31:43.410Z,8.88
2018-05-04T03:34:11.789Z,10.00
2018-05-04T03:36:40.156Z,10.43
2018-05-04T03:39:08.554Z,10.43
2018-05-04T03:41:36.933Z,10.38
2018-05-04T03:44:05.326Z,10.25
2018-05-04T03:46:33.712Z,10.13
2018-05-04T03:49:02.145Z,9.73
2018-05-04T03:51:30.517Z,9.98
2018-05-04T03:53:58.887Z,9.60
2018-05-04T03:56:28.045Z,9.05
2018-05-04T03:59:14.864Z,8.88
2018-05-04T04:02:01.116Z,10.38
2018-05-04T04:04:29.516Z,9.30
2018-05-04T04:06:57.893Z,10.45
2018-05-04T04:09:26.299Z,9.38
2018-05-04T04:11:54.671Z,9.60
2018-05-04T04:14:23.049Z,8.95
2018-05-04T04:16:52.253Z,10.60
2018-05-04T04:19:20.636Z,10.75
2018-05-04T04:21:49.030Z,8.90
2018-05-04T04:24:18.176Z,10.20
2018-05-04T04:26:46.680Z,9.57
2018-05-04T04:29:15.062Z,9.48
2018-05-04T04:31:43.447Z,10.00
2018-05-04T04:34:11.836Z,9.55
2018-05-04T04:36:40.204Z,9.65
2018-05-04T04:39:08.610Z,9.38
2018-05-04T04:41:36.990Z,10.05
2018-05-04T04:44:05.600Z,9.57
2018-05-04T04:46:33.980Z,10.48
2018-05-04T04:49:02.351Z,9.93
2018-05-04T04:51:30.748Z,11.77
2018-05-04T04:53:59.125Z,9.55
2018-05-04T04:56:27.525Z,9.95
2018-05-04T04:58:55.901Z,11.50
2018-05-04T05:01:24.333Z,10.55
2018-05-04T05:03:52.706Z,9.25
2018-05-04T05:06:21.080Z,10.10
2018-05-04T05:08:50.240Z,11.20
2018-05-04T05:11:18.621Z,8.95
2018-05-04T05:13:47.020Z,11.00
2018-05-04T05:16:16.161Z,9.40
2018-05-04T05:18:44.948Z,9.52
2018-05-04T05:21:13.321Z,10.48
2018-05-04T05:23:41.774Z,12.35
2018-05-04T05:26:10.142Z,10.85
2018-05-04T05:28:39.295Z,11.95
2018-05-04T05:31:07.692Z,11.07
2018-05-04T05:33:36.070Z,11.25
2018-05-04T05:36:04.495Z,11.85
2018-05-04T05:38:32.875Z,10.20
2018-05-04T05:41:01.255Z,10.90
2018-05-04T05:43:29.660Z,10.90
2018-05-04T05:45:58.040Z,11.00
2018-05-04T05:48:26.445Z,10.25
2018-05-04T05:50:54.816Z,11.40
2018-05-04T05:53:23.229Z,11.25
2018-05-04T05:55:52.373Z,11.05
2018-05-04T05:58:20.761Z,12.43
2018-05-04T06:00:49.181Z,10.73
2018-05-04T06:03:18.324Z,10.38
2018-05-04T06:05:46.720Z,10.73
2018-05-04T06:08:15.102Z,9.93
2018-05-04T06:10:43.537Z,9.48
2018-05-04T06:13:11.924Z,11.15
2018-05-04T06:15:40.300Z,10.70
2018-05-04T06:18:08.699Z,11.60
2018-05-04T06:20:37.066Z,12.10
2018-05-04T06:23:05.459Z,9.82
2018-05-04T06:25:33.832Z,11.73
2018-05-04T06:28:02.240Z,10.82
2018-05-04T06:30:30.616Z,10.20
2018-05-04T06:32:59.017Z,10.75
2018-05-04T06:35:28.157Z,10.57
2018-05-04T06:37:56.732Z,10.35
2018-05-04T06:40:25.105Z,11.68
2018-05-04T06:42:53.504Z,9.68
2018-05-04T06:45:21.906Z,9.45
2018-05-04T06:47:50.285Z,8.77
2018-05-04T06:50:18.712Z,10.73
2018-05-04T06:52:47.096Z,12.98
2018-05-04T06:55:15.899Z,10.45
2018-05-04T06:57:44.277Z,10.02
2018-05-04T07:00:12.653Z,9.73
2018-05-04T07:02:41.080Z,11.00
2018-05-04T07:05:09.461Z,10.45
2018-05-04T07:07:37.867Z,10.02
2018-05-04T07:10:06.258Z,12.37
2018-05-04T07:12:34.706Z,9.60
2018-05-04T07:15:03.917Z,9.90
2018-05-04T07:17:32.313Z,12.05
2018-05-04T07:20:00.722Z,8.98
2018-05-04T07:22:29.102Z,11.43
2018-05-04T07:24:57.513Z,12.23
2018-05-04T07:27:26.667Z,10.32
2018-05-04T07:29:55.180Z,10.52
2018-05-04T07:32:23.556Z,11.27
2018-05-04T07:34:51.947Z,10.52
2018-05-04T07:37:21.127Z,10.05
2018-05-04T07:39:49.508Z,10.50
2018-05-04T07:42:18.052Z,11.35
2018-05-04T07:44:46.437Z,9.67
2018-05-04T07:47:14.822Z,9.57
2018-05-04T07:49:43.274Z,10.35
2018-05-04T07:52:11.665Z,11.77
2018-05-04T07:54:41.810Z,11.48
2018-05-04T07:57:10.185Z,9.90
2018-05-04T07:59:38.872Z,10.57
2018-05-04T08:02:07.249Z,11.47
2018-05-04T08:04:35.690Z,10.57
2018-05-04T08:07:04.172Z,9.93
2018-05-04T08:09:32.548Z,10.63
2018-05-04T08:12:00.949Z,10.57
2018-05-04T08:14:29.323Z,10.47
2018-05-04T08:16:57.912Z,11.40
2018-05-04T08:19:26.294Z,11.87
2018-05-04T08:21:54.745Z,11.23
2018-05-04T08:24:23.160Z,12.20
2018-05-04T08:26:51.544Z,12.60
2018-05-04T08:29:19.959Z,13.33
2018-05-04T08:31:49.115Z,12.97
2018-05-04T08:34:17.788Z,12.50
2018-05-04T08:36:46.169Z,13.17
2018-05-04T08:39:15.068Z,13.17
2018-05-04T08:41:43.753Z,12.37
2018-05-04T08:44:14.179Z,12.27
2018-05-04T08:46:43.252Z,12.70
2018-05-04T08:49:11.630Z,14.30
2018-05-04T08:51:40.043Z,13.73
2018-05-04T08:54:08.432Z,12.05
2018-05-04T08:56:36.861Z,14.43
2018-05-04T08:59:05.251Z,14.70
2018-05-04T09:01:33.633Z,13.40
2018-05-04T09:04:02.035Z,13.57
2018-05-04T09:06:30.404Z,14.50
2018-05-04T09:08:58.978Z,14.30
2018-05-04T09:11:27.375Z,14.15
2018-05-04T09:13:55.756Z,14.95
2018-05-04T09:16:24.157Z,15.60
2018-05-04T09:18:53.309Z,15.35
2018-05-04T09:21:21.713Z,16.10
2018-05-04T09:23:50.106Z,15.70
2018-05-04T09:26:19.360Z,17.00
2018-05-04T09:28:47.752Z,15.27
2018-05-04T09:31:16.133Z,15.30
2018-05-04T09:33:44.545Z,15.40
2018-05-04T09:36:12.918Z,13.70
2018-05-04T09:38:41.335Z,14.60
2018-05-04T09:41:09.720Z,15.80
2018-05-04T09:43:38.321Z,16.50
2018-05-04T09:46:06.728Z,17.23
2018-05-04T09:48:35.869Z,15.57
2018-05-04T09:51:04.281Z,18.60
2018-05-04T09:53:32.661Z,16.73
2018-05-04T09:56:01.114Z,16.70
2018-05-04T09:58:30.238Z,19.25
2018-05-04T10:00:58.923Z,16.40
2018-05-04T10:03:27.880Z,18.30
2018-05-04T10:05:56.284Z,17.97
2018-05-04T10:08:25.945Z,18.47
2018-05-04T10:10:55.094Z,19.80
2018-05-04T10:13:23.502Z,22.00
2018-05-04T10:15:51.880Z,20.27
2018-05-04T10:18:20.435Z,20.97
2018-05-04T10:20:48.814Z,23.93
2018-05-04T10:23:17.192Z,20.10
2018-05-04T10:25:45.586Z,20.90
2018-05-04T10:28:13.964Z,21.13
2018-05-04T10:30:42.380Z,22.40
2018-05-04T10:33:11.537Z,20.33
2018-05-04T10:35:40.117Z,19.83
2018-05-04T10:38:08.574Z,22.37
2018-05-04T10:40:36.892Z,22.30
2018-05-04T10:43:05.374Z,23.13
2018-05-04T10:45:33.752Z,19.80
2018-05-04T10:48:02.156Z,21.17
2018-05-04T10:50:31.306Z,20.97
2018-05-04T10:52:59.874Z,21.70
2018-05-04T10:55:28.253Z,21.40
2018-05-04T10:57:56.634Z,21.27
2018-05-04T11:00:25.041Z,21.00
2018-05-04T11:02:53.417Z,22.10
2018-05-04T11:05:21.816Z,20.67
2018-05-04T11:07:50.989Z,19.60
2018-05-04T11:10:20.261Z,20.90
2018-05-04T11:12:48.649Z,19.47
2018-05-04T11:15:17.030Z,19.60
2018-05-04T11:17:45.433Z,18.97
2018-05-04T11:20:13.821Z,21.07
2018-05-04T11:22:42.525Z,19.77
2018-05-04T11:25:11.691Z,19.53
2018-05-04T11:27:40.240Z,21.33
2018-05-04T11:30:08.625Z,20.03
2018-05-04T11:32:37.001Z,20.67
2018-05-04T11:35:05.480Z,20.53
2018-05-04T11:37:33.837Z,19.43
2018-05-04T11:40:02.239Z,19.90
2018-05-04T11:42:30.676Z,19.43
2018-05-04T11:45:00.005Z,20.07
2018-05-04T11:47:28.456Z,21.47
2018-05-04T11:49:57.678Z,19.00
2018-05-04T11:52:26.165Z,19.33
2018-05-04T11:54:54.586Z,19.03
2018-05-04T11:57:23.149Z,19.73
2018-05-04T11:59:51.549Z,20.27
2018-05-04T12:02:21.794Z,20.80
2018-05-04T12:04:50.224Z,21.07
2018-05-04T12:07:18.592Z,20.87
2018-05-04T12:09:46.997Z,20.60
2018-05-04T12:12:15.468Z,19.87
2018-05-04T12:14:43.877Z,20.40
2018-05-04T12:17:12.405Z,20.87
2018-05-04T12:19:41.213Z,22.10
2018-05-04T12:22:09.602Z,18.87
2018-05-04T12:24:37.989Z,20.13
2018-05-04T12:27:06.397Z,21.50
2018-05-04T12:29:35.666Z,19.90
2018-05-04T12:32:04.590Z,18.23
2018-05-04T12:34:33.431Z,19.00
2018-05-04T12:37:04.166Z,18.83
2018-05-04T12:39:32.954Z,19.17
2018-05-04T12:42:02.560Z,21.23
2018-05-04T12:44:31.409Z,18.63
2018-05-04T12:47:00.288Z,19.20
2018-05-04T12:49:29.030Z,18.87
2018-05-04T12:51:57.429Z,19.10
2018-05-04T12:54:26.961Z,19.00
2018-05-04T12:56:56.136Z,20.10
2018-05-04T12:59:24.897Z,20.97
2018-05-04T13:01:53.697Z,20.20
2018-05-04T13:04:22.634Z,20.73
2018-05-04T13:06:51.606Z,19.50
2018-05-04T13:09:20.339Z,20.20
2018-05-04T13:11:49.043Z,20.60
2018-05-04T13:14:17.996Z,21.03
2018-05-04T13:16:46.505Z,20.83
2018-05-04T13:19:15.244Z,22.13
2018-05-04T13:21:44.394Z,21.40
2018-05-04T13:24:12.808Z,20.40
2018-05-04T13:26:41.185Z,22.57
2018-05-04T13:29:09.742Z,20.93
2018-05-04T13:31:38.126Z,18.13
2018-05-04T13:34:06.505Z,19.40
2018-05-04T13:36:35.649Z,21.63
2018-05-04T13:39:04.797Z,20.10
2018-05-04T13:41:33.208Z,21.03
2018-05-04T13:44:02.349Z,21.00
2018-05-04T13:46:30.938Z,21.30
2018-05-04T13:48:59.309Z,19.60
2018-05-04T13:51:27.686Z,19.80
2018-05-04T13:53:56.097Z,19.97
2018-05-04T13:56:24.476Z,19.87
2018-05-04T13:58:52.881Z,20.20
2018-05-04T14:01:22.064Z,20.03
2018-05-04T14:03:51.275Z,17.23
2018-05-04T14:06:20.438Z,18.00
2018-05-04T14:08:48.821Z,21.53
2018-05-04T14:11:17.216Z,19.30
2018-05-04T14:13:45.589Z,18.93
2018-05-04T14:16:13.986Z,20.07
2018-05-04T14:18:43.130Z,20.93
2018-05-04T14:21:11.710Z,18.93
2018-05-04T14:23:40.080Z,16.40
2018-05-04T14:26:08.465Z,17.30
2018-05-04T14:28:36.879Z,16.90
2018-05-04T14:31:06.756Z,18.20
2018-05-04T14:33:35.160Z,16.53
2018-05-04T14:36:03.536Z,17.20
2018-05-04T14:38:31.951Z,16.90
2018-05-04T14:41:01.090Z,20.80
2018-05-04T14:43:29.456Z,23.40
2018-05-04T14:45:57.881Z,21.37
2018-05-04T14:48:26.543Z,23.43
2018-05-04T14:50:55.866Z,22.70
2018-05-04T14:53:25.675Z,22.83
2018-05-04T14:55:54.902Z,23.47
2018-05-04T14:58:24.171Z,21.80
2018-05-04T15:00:53.485Z,20.60
2018-05-04T15:03:23.125Z,20.40
2018-05-04T15:05:52.884Z,21.90
2018-05-04T15:08:22.275Z,20.77
2018-05-04T15:10:50.856Z,19.10
2018-05-04T15:13:19.267Z,18.10
2018-05-04T15:15:48.591Z,17.33
2018-05-04T15:18:18.740Z,19.80
2018-05-04T15:20:47.180Z,19.77
2018-05-04T15:23:16.947Z,18.87
2018-05-04T15:25:45.376Z,17.20
2018-05-04T15:28:13.808Z,18.27
2018-05-04T15:30:42.376Z,18.17
2018-05-04T15:33:11.664Z,18.37
2018-05-04T15:35:40.042Z,18.27
2018-05-04T15:38:08.537Z,17.83
2018-05-04T15:40:37.117Z,19.07
2018-05-04T15:43:07.261Z,15.80
2018-05-04T15:45:35.636Z,15.53
2018-05-04T15:48:10.417Z,16.80
2018-05-04T15:50:45.145Z,17.43
2018-05-04T15:53:13.778Z,16.67
2018-05-04T15:55:42.157Z,18.00
2018-05-04T15:58:10.833Z,19.07
2018-05-04T16:00:39.280Z,16.53
2018-05-04T16:03:07.660Z,18.80
2018-05-04T16:05:36.221Z,21.30
2018-05-04T16:08:05.369Z,17.37
2018-05-04T16:10:34.004Z,18.10
2018-05-04T16:13:03.329Z,19.37
2018-05-04T16:15:31.894Z,18.63
2018-05-04T16:18:00.316Z,19.83
2018-05-04T16:20:28.698Z,17.90
2018-05-04T16:22:57.105Z,19.10
2018-05-04T16:25:25.489Z,19.63
2018-05-04T16:27:54.950Z,17.33
2018-05-04T16:30:23.354Z,16.17
2018-05-04T16:32:51.745Z,17.57
2018-05-04T16:35:20.158Z,17.63
2018-05-04T16:37:48.550Z,17.93
2018-05-04T16:40:17.330Z,17.50
2018-05-04T16:42:45.735Z,18.20
2018-05-04T16:45:14.307Z,16.97
2018-05-04T16:47:48.047Z,16.10
2018-05-04T16:50:16.605Z,18.77
2018-05-04T16:52:45.148Z,15.57
2018-05-04T16:55:13.567Z,16.63
2018-05-04T16:57:41.977Z,16.17
2018-05-04T17:00:10.462Z,16.27
2018-05-04T17:02:38.860Z,15.33
2018-05-04T17:05:08.018Z,16.33
2018-05-04T17:07:36.514Z,14.80
2018-05-04T17:10:04.902Z,16.37
2018-05-04T17:12:34.091Z,17.17
2018-05-04T17:15:02.509Z,15.87
2018-05-04T17:17:30.897Z,17.00
2018-05-04T17:19:59.316Z,17.13
2018-05-04T17:22:27.707Z,16.40
2018-05-04T17:24:56.224Z,16.60
2018-05-04T17:27:24.597Z,17.80
2018-05-04T17:29:52.988Z,17.50
2018-05-04T17:32:21.409Z,17.17
2018-05-04T17:34:49.805Z,17.37
2018-05-04T17:37:18.225Z,16.93
2018-05-04T17:39:47.464Z,18.03
2018-05-04T17:42:16.132Z,17.97
2018-05-04T17:44:44.522Z,19.07
2018-05-04T17:47:12.960Z,17.13
2018-05-04T17:49:41.328Z,17.47
2018-05-04T17:52:10.484Z,17.70
2018-05-04T17:54:38.877Z,17.80
2018-05-04T17:57:07.492Z,18.67
2018-05-04T17:59:36.207Z,19.10
2018-05-04T18:02:04.602Z,18.17
2018-05-04T18:04:32.984Z,18.60
2018-05-04T18:07:01.389Z,21.70
2018-05-04T18:09:29.793Z,19.63
2018-05-04T18:11:58.194Z,19.17
2018-05-04T18:14:26.564Z,19.23
2018-05-04T18:16:54.978Z,17.63
2018-05-04T18:19:23.355Z,20.50
2018-05-04T18:21:51.769Z,17.53
2018-05-04T18:24:20.951Z,19.23
2018-05-04T18:26:50.118Z,18.57
2018-05-04T18:29:18.529Z,19.30
2018-05-04T18:31:46.916Z,20.73
2018-05-04T18:34:16.081Z,18.83
2018-05-04T18:36:44.472Z,19.03
2018-05-04T18:39:12.896Z,21.87
2018-05-04T18:41:41.350Z,20.13
2018-05-04T18:44:10.550Z,21.00
2018-05-04T18:46:39.726Z,18.30
2018-05-04T18:49:09.005Z,21.07
2018-05-04T18:51:37.445Z,20.77
2018-05-04T18:54:05.825Z,20.50
2018-05-04T18:56:34.284Z,20.47
2018-05-04T18:59:03.434Z,20.80
2018-05-04T19:01:31.824Z,19.50
2018-05-04T19:04:00.234Z,22.03
2018-05-04T19:06:28.629Z,21.80
2018-05-04T19:08:57.872Z,21.57
2018-05-04T19:11:26.268Z,21.30
2018-05-04T19:13:54.928Z,21.20
2018-05-04T19:16:23.328Z,19.50
2018-05-04T19:18:51.713Z,21.60
2018-05-04T19:21:20.429Z,21.07
2018-05-04T19:23:51.478Z,22.80
2018-05-04T19:26:20.042Z,21.00
2018-05-04T19:28:49.200Z,22.60
2018-05-04T19:31:18.540Z,25.00
2018-05-04T19:33:46.922Z,23.50
2018-05-04T19:36:16.263Z,24.93
2018-05-04T19:38:45.272Z,22.17
2018-05-04T19:41:15.797Z,22.00
2018-05-04T19:43:45.838Z,22.00
2018-05-04T19:46:14.918Z,21.40
2018-05-04T19:48:44.462Z,21.45
2018-05-04T19:51:13.562Z,21.53
2018-05-04T19:53:42.457Z,21.43
2018-05-04T19:56:11.370Z,23.60
2018-05-04T19:58:40.751Z,24.10
2018-05-04T20:01:09.588Z,22.60
2018-05-04T20:03:38.273Z,23.23
2018-05-04T20:06:06.673Z,22.30
2018-05-04T20:08:36.010Z,21.00
2018-05-04T20:11:04.665Z,23.83
2018-05-04T20:13:34.542Z,24.30
2018-05-04T20:16:03.338Z,23.23
2018-05-04T20:18:32.024Z,22.80
2018-05-04T20:21:00.608Z,20.97
2018-05-04T20:23:30.625Z,22.23
2018-05-04T20:25:59.153Z,24.15
2018-05-04T20:28:28.489Z,24.70
2018-05-04T20:30:56.897Z,24.43
2018-05-04T20:33:25.367Z,22.73
2018-05-04T20:35:53.996Z,23.47
2018-05-04T20:38:23.454Z,21.17
2018-05-04T20:40:51.981Z,21.93
2018-05-04T20:43:21.314Z,22.77
2018-05-04T20:45:49.719Z,22.57
2018-05-04T20:48:18.261Z,25.70
2018-05-04T20:50:46.665Z,22.48
2018-05-04T20:53:15.050Z,22.70
2018-05-04T20:55:43.606Z,21.20
2018-05-04T20:58:12.032Z,23.65
2018-05-04T21:00:41.953Z,22.70
2018-05-04T21:03:11.151Z,22.30
2018-05-04T21:05:40.748Z,23.98
2018-05-04T21:08:09.136Z,23.75
2018-05-04T21:10:38.445Z,24.65
2018-05-04T21:13:07.892Z,23.53
2018-05-04T21:15:37.231Z,23.93
2018-05-04T21:18:05.809Z,24.23
2018-05-04T21:20:34.230Z,22.80
2018-05-04T21:23:03.438Z,23.80
2018-05-04T21:25:31.962Z,25.27
2018-05-04T21:28:00.364Z,23.60
2018-05-04T21:30:28.783Z,26.70
2018-05-04T21:32:57.251Z,26.30
2018-05-04T21:35:25.709Z,26.55
2018-05-04T21:37:54.159Z,26.70
2018-05-04T21:40:22.834Z,23.60
2018-05-04T21:42:51.213Z,26.67
2018-05-04T21:45:19.597Z,26.65
2018-05-04T21:47:48.006Z,24.37
2018-05-04T21:50:16.388Z,24.35
2018-05-04T21:52:44.805Z,26.98
2018-05-04T21:55:13.242Z,26.30
2018-05-04T21:57:41.896Z,27.02
2018-05-04T22:00:10.297Z,26.73
2018-05-04T22:02:38.869Z,26.62
2018-05-04T22:05:07.287Z,24.77
2018-05-04T22:07:37.463Z,24.67
2018-05-04T22:10:06.085Z,25.83
2018-05-04T22:12:35.244Z,24.75
2018-05-04T22:15:04.593Z,25.27
2018-05-04T22:17:33.764Z,20.80
2018-05-04T22:20:02.164Z,17.37
2018-05-04T22:22:31.342Z,15.27
2018-05-04T22:24:59.869Z,14.07
2018-05-04T22:27:28.378Z,13.30
2018-05-04T22:29:57.501Z,9.93
2018-05-04T22:32:26.049Z,10.52
2018-05-04T22:34:54.430Z,10.20
2018-05-04T22:37:22.853Z,8.77
2018-05-04T22:39:52.033Z,9.65
2018-05-04T22:42:20.414Z,9.00
2018-05-04T22:44:48.818Z,8.90
2018-05-04T22:47:19.648Z,8.70
2018-05-04T22:49:49.109Z,9.25
2018-05-04T22:52:17.494Z,8.93
2018-05-04T22:54:45.877Z,7.05
2018-05-04T22:57:14.300Z,6.87
2018-05-04T22:59:42.716Z,7.18
2018-05-04T23:02:11.205Z,7.20
2018-05-04T23:04:39.598Z,7.12
2018-05-04T23:07:08.369Z,7.30
2018-05-04T23:09:36.749Z,7.22
2018-05-04T23:12:05.180Z,7.30
2018-05-04T23:14:34.369Z,6.62
2018-05-04T23:17:03.515Z,6.55
2018-05-04T23:19:31.903Z,7.72
2018-05-04T23:22:00.324Z,7.28
2018-05-04T23:24:29.780Z,6.05
2018-05-04T23:26:58.158Z,7.25
2018-05-04T23:29:26.600Z,6.30
2018-05-04T23:31:54.957Z,8.15
2018-05-04T23:34:23.384Z,6.50
2018-05-04T23:36:54.345Z,6.70
2018-05-04T23:39:22.729Z,6.87
2018-05-04T23:41:51.612Z,6.15
2018-05-04T23:44:20.023Z,6.50
2018-05-04T23:46:48.397Z,6.05
2018-05-04T23:49:16.805Z,6.78
2018-05-04T23:51:45.190Z,6.40
2018-05-04T23:54:13.592Z,6.37
2018-05-04T23:56:41.961Z,7.75
2018-05-04T23:59:10.652Z,6.68
